X  Zatvori METAR podaci zračne luke        LGTS Thessaloniki Macedonia International
Temperatura
11°C Temperatura
10°C Točka rosišta
94% Vlaga



Vjetar
3 MPS
6 KM/S
1 M/S
3 Čvorovi



-1°
VRB
Trenutna situacija

Mostly Clear Uglavnom vedro
Tlak zraka 1014 (hPa) - 29.94 (inHg)
Vidljivost 6 (milje) - 10 (km)
Zračna luka
Kôd zračne luke LGTS

Lokacija: Thessaloniki Macedonia International
Udaljenost: 85 (mi)

Metar:
METAR LGTS 031920Z VRB03KT 9999 FEW015 11/10 Q1014 NOSIG

Vrijeme: 03-03-2024 21:20 EET